createdAt,value
2022-09-07T00:01:36.874Z,51.00
2022-09-07T00:04:03.952Z,51.60
2022-09-07T00:06:31.060Z,51.00
2022-09-07T00:08:58.533Z,50.90
2022-09-07T00:11:25.292Z,50.90
2022-09-07T00:13:52.075Z,51.00
2022-09-07T00:16:25.915Z,50.90
2022-09-07T00:19:01.266Z,51.00
2022-09-07T00:21:28.639Z,51.00
2022-09-07T00:23:55.570Z,51.10
2022-09-07T00:26:25.446Z,51.40
2022-09-07T00:28:52.839Z,51.10
2022-09-07T00:31:22.285Z,51.00
2022-09-07T00:33:50.731Z,51.60
2022-09-07T00:36:19.073Z,51.20
2022-09-07T00:38:45.924Z,51.40
2022-09-07T00:41:13.670Z,51.10
2022-09-07T00:43:47.020Z,51.20
2022-09-07T00:46:19.712Z,51.30
2022-09-07T00:49:08.174Z,51.20
2022-09-07T00:51:48.099Z,51.50
2022-09-07T00:54:23.402Z,51.30
2022-09-07T00:56:52.917Z,51.40
2022-09-07T00:59:25.153Z,51.80
2022-09-07T01:01:52.530Z,51.70
2022-09-07T01:04:20.404Z,51.60
2022-09-07T01:06:47.245Z,51.40
2022-09-07T01:09:18.776Z,51.90
2022-09-07T01:11:50.802Z,51.80
2022-09-07T01:14:21.145Z,51.90
2022-09-07T01:17:39.471Z,51.80
2022-09-07T01:20:36.393Z,51.80
2022-09-07T01:23:03.198Z,51.80
2022-09-07T01:25:41.784Z,51.90
2022-09-07T01:28:13.839Z,51.80
2022-09-07T01:30:50.825Z,52.30
2022-09-07T01:33:32.841Z,51.90
2022-09-07T01:36:26.938Z,51.90
2022-09-07T01:38:56.270Z,52.00
2022-09-07T01:41:44.505Z,52.40
2022-09-07T01:44:36.026Z,52.10
2022-09-07T01:47:11.049Z,52.20
2022-09-07T01:49:49.961Z,52.30
2022-09-07T01:52:41.108Z,52.40
2022-09-07T01:55:21.185Z,52.30
2022-09-07T01:57:55.232Z,52.40
2022-09-07T02:00:23.153Z,52.40
2022-09-07T02:03:19.925Z,52.60
2022-09-07T02:06:04.543Z,52.60
2022-09-07T02:08:40.489Z,52.50
2022-09-07T02:11:12.934Z,52.50
2022-09-07T02:13:42.996Z,52.50
2022-09-07T02:16:14.793Z,52.60
2022-09-07T02:18:46.927Z,52.60
2022-09-07T02:21:19.921Z,52.60
2022-09-07T02:23:56.875Z,52.70
2022-09-07T02:26:25.853Z,52.70
2022-09-07T02:28:52.935Z,52.80
2022-09-07T02:31:20.374Z,52.70
2022-09-07T02:33:47.643Z,52.80
2022-09-07T02:36:18.129Z,52.90
2022-09-07T02:38:45.058Z,52.90
2022-09-07T02:41:36.418Z,52.90
2022-09-07T02:44:10.814Z,53.20
2022-09-07T02:46:43.734Z,53.00
2022-09-07T02:49:41.949Z,53.20
2022-09-07T02:52:33.050Z,53.30
2022-09-07T02:55:24.647Z,53.40
2022-09-07T02:58:06.593Z,53.70
2022-09-07T03:00:45.300Z,53.60
2022-09-07T03:03:53.776Z,53.90
2022-09-07T03:06:29.475Z,53.80
2022-09-07T03:08:58.938Z,53.80
2022-09-07T03:11:26.381Z,54.20
2022-09-07T03:13:53.187Z,53.90
2022-09-07T03:16:20.066Z,54.00
2022-09-07T03:18:46.949Z,54.00
2022-09-07T03:21:13.713Z,54.10
2022-09-07T03:23:40.495Z,54.40
2022-09-07T03:26:07.331Z,54.30
2022-09-07T03:28:34.190Z,54.40
2022-09-07T03:31:02.890Z,54.40
2022-09-07T03:33:29.817Z,54.30
2022-09-07T03:36:00.105Z,54.60
2022-09-07T03:38:26.970Z,54.30
2022-09-07T03:40:58.743Z,55.20
2022-09-07T03:43:26.009Z,54.40
2022-09-07T03:46:00.669Z,54.20
2022-09-07T03:48:31.086Z,54.20
2022-09-07T03:51:03.902Z,54.60
2022-09-07T03:53:32.258Z,54.70
2022-09-07T03:56:04.630Z,55.00
2022-09-07T03:58:32.922Z,55.40
2022-09-07T04:01:04.512Z,54.90
2022-09-07T04:03:31.352Z,55.30
2022-09-07T04:05:59.780Z,54.60
2022-09-07T04:08:28.610Z,54.70
2022-09-07T04:11:00.302Z,54.90
2022-09-07T04:13:28.460Z,55.20
2022-09-07T04:15:55.854Z,55.00
2022-09-07T04:18:23.393Z,54.90
2022-09-07T04:20:50.807Z,55.10
2022-09-07T04:23:20.661Z,55.00
2022-09-07T04:25:49.174Z,55.00
2022-09-07T04:28:20.724Z,55.40
2022-09-07T04:30:48.106Z,55.00
2022-09-07T04:33:15.438Z,55.10
2022-09-07T04:35:43.389Z,55.20
2022-09-07T04:38:15.178Z,55.40
2022-09-07T04:40:42.311Z,55.20
2022-09-07T04:43:09.656Z,55.20
2022-09-07T04:45:37.606Z,55.30
2022-09-07T04:48:05.101Z,55.30
2022-09-07T04:50:32.162Z,55.60
2022-09-07T04:52:58.973Z,55.40
2022-09-07T04:55:25.792Z,55.40
2022-09-07T04:57:52.554Z,55.60
2022-09-07T05:00:19.548Z,55.50
2022-09-07T05:02:46.435Z,55.40
2022-09-07T05:05:13.443Z,55.80
2022-09-07T05:07:40.253Z,55.70
2022-09-07T05:10:07.286Z,55.70
2022-09-07T05:12:34.081Z,55.70
2022-09-07T05:15:01.588Z,55.50
2022-09-07T05:17:31.010Z,55.50
2022-09-07T05:19:58.129Z,55.60
2022-09-07T05:22:25.245Z,55.90
2022-09-07T05:24:52.046Z,55.80
2022-09-07T05:27:19.032Z,55.80
2022-09-07T05:30:03.700Z,55.80
2022-09-07T05:32:32.149Z,55.90
2022-09-07T05:34:58.997Z,55.80
2022-09-07T05:37:25.768Z,56.10
2022-09-07T05:39:55.099Z,56.00
2022-09-07T05:42:22.669Z,56.40
2022-09-07T05:44:49.418Z,56.40
2022-09-07T05:47:16.288Z,56.30
2022-09-07T05:49:43.135Z,56.40
2022-09-07T05:52:10.246Z,56.30
2022-09-07T05:54:37.042Z,56.40
2022-09-07T05:57:04.410Z,56.70
2022-09-07T05:59:31.229Z,56.50
2022-09-07T06:01:58.144Z,56.80
2022-09-07T06:04:25.075Z,57.10
2022-09-07T06:07:19.910Z,56.70
2022-09-07T06:12:25.970Z,56.90
2022-09-07T06:14:52.746Z,56.70
2022-09-07T06:17:19.711Z,56.80
2022-09-07T06:19:46.488Z,56.80
2022-09-07T06:22:13.339Z,57.00
2022-09-07T06:24:40.181Z,57.00
2022-09-07T06:27:06.959Z,57.20
2022-09-07T06:29:33.785Z,57.50
2022-09-07T06:34:47.522Z,57.40
2022-09-07T06:37:14.435Z,57.60
2022-09-07T06:39:41.234Z,58.00
2022-09-07T06:42:08.106Z,57.60
2022-09-07T06:44:34.961Z,57.70
2022-09-07T06:49:33.465Z,57.60
2022-09-07T06:52:00.289Z,57.70
2022-09-07T06:57:13.885Z,57.70
2022-09-07T06:59:40.660Z,57.60
2022-09-07T07:02:08.122Z,57.60
2022-09-07T07:04:40.163Z,57.40
2022-09-07T07:07:14.194Z,57.80
2022-09-07T07:09:41.596Z,57.70
2022-09-07T07:12:09.431Z,57.90
2022-09-07T07:14:38.365Z,57.80
2022-09-07T07:17:09.063Z,57.90
2022-09-07T07:19:35.869Z,57.80
2022-09-07T07:22:23.468Z,57.60
2022-09-07T07:24:49.419Z,57.70
2022-09-07T07:27:16.595Z,57.60
2022-09-07T07:29:43.476Z,57.40
2022-09-07T07:32:10.265Z,57.40
2022-09-07T07:34:37.091Z,57.30
2022-09-07T07:37:04.136Z,57.40
2022-09-07T07:42:17.835Z,57.20
2022-09-07T07:44:44.847Z,57.30
2022-09-07T07:47:11.611Z,57.30
2022-09-07T07:49:38.364Z,57.10
2022-09-07T07:54:52.997Z,57.20
2022-09-07T07:57:19.818Z,57.00
2022-09-07T07:59:46.542Z,57.10
2022-09-07T08:02:17.239Z,56.90
2022-09-07T08:04:44.365Z,56.90
2022-09-07T08:07:15.110Z,57.00
2022-09-07T08:09:44.562Z,56.90
2022-09-07T08:12:16.594Z,56.80
2022-09-07T08:14:43.370Z,56.70
2022-09-07T08:17:16.461Z,56.70
2022-09-07T08:19:43.393Z,56.70
2022-09-07T08:22:11.438Z,56.70
2022-09-07T08:24:38.386Z,56.60
2022-09-07T08:27:05.662Z,56.60
2022-09-07T08:29:35.133Z,56.30
2022-09-07T08:32:04.189Z,56.00
2022-09-07T08:34:31.001Z,56.20
2022-09-07T08:36:57.724Z,56.20
2022-09-07T08:39:24.480Z,56.30
2022-09-07T08:42:08.627Z,56.20
2022-09-07T08:44:43.506Z,56.10
2022-09-07T08:47:30.756Z,56.10
2022-09-07T08:50:12.653Z,55.80
2022-09-07T08:53:12.813Z,55.70
2022-09-07T08:55:46.989Z,55.70
2022-09-07T08:58:48.212Z,55.80
2022-09-07T09:01:36.532Z,55.90
2022-09-07T09:04:18.725Z,55.30
2022-09-07T09:07:08.707Z,54.70
2022-09-07T09:09:53.799Z,55.30
2022-09-07T09:12:42.057Z,55.50
2022-09-07T09:15:33.033Z,55.10
2022-09-07T09:18:13.874Z,54.00
2022-09-07T09:20:53.740Z,55.00
2022-09-07T09:23:25.666Z,55.10
2022-09-07T09:25:58.898Z,55.20
2022-09-07T09:28:27.693Z,55.20
2022-09-07T09:30:57.101Z,55.00
2022-09-07T09:33:27.253Z,55.10
2022-09-07T09:36:00.408Z,55.10
2022-09-07T09:38:39.419Z,55.20
2022-09-07T09:41:14.174Z,55.10
2022-09-07T09:43:47.951Z,54.80
2022-09-07T09:46:19.653Z,54.40
2022-09-07T09:49:18.006Z,54.50
2022-09-07T09:54:44.955Z,54.40
2022-09-07T09:57:38.632Z,53.90
2022-09-07T10:00:10.917Z,54.10
2022-09-07T10:05:28.838Z,53.70
2022-09-07T10:07:56.722Z,53.50
2022-09-07T10:10:24.970Z,53.20
2022-09-07T10:12:55.890Z,52.80
2022-09-07T10:15:41.721Z,52.90
2022-09-07T10:18:21.121Z,53.60
2022-09-07T10:20:47.878Z,52.60
2022-09-07T10:23:25.225Z,52.90
2022-09-07T10:25:51.995Z,52.60
2022-09-07T10:28:24.480Z,52.20
2022-09-07T10:31:15.359Z,52.80
2022-09-07T10:37:01.652Z,52.60
2022-09-07T10:39:35.601Z,52.60
2022-09-07T10:42:14.471Z,52.00
2022-09-07T10:45:25.856Z,51.70
2022-09-07T10:48:07.406Z,52.00
2022-09-07T10:51:03.071Z,52.10
2022-09-07T10:53:41.241Z,52.00
2022-09-07T10:56:15.071Z,52.00
2022-09-07T10:59:15.927Z,51.00
2022-09-07T11:01:51.636Z,51.50
2022-09-07T11:04:27.626Z,51.50
2022-09-07T11:07:20.491Z,51.30
2022-09-07T11:09:52.477Z,51.40
2022-09-07T11:12:28.366Z,51.30
2022-09-07T11:15:24.790Z,51.00
2022-09-07T11:18:27.243Z,51.00
2022-09-07T11:21:01.037Z,50.90
2022-09-07T11:23:44.901Z,51.00
2022-09-07T11:26:24.391Z,51.10
2022-09-07T11:32:03.223Z,51.00
2022-09-07T11:34:40.581Z,50.90
2022-09-07T11:37:15.914Z,51.00
2022-09-07T11:39:56.757Z,51.20
2022-09-07T11:42:48.021Z,51.00
2022-09-07T11:45:25.303Z,50.90
2022-09-07T11:47:59.206Z,50.60
2022-09-07T11:50:28.915Z,50.60
2022-09-07T11:53:15.271Z,50.60
2022-09-07T11:55:46.397Z,48.80
2022-09-07T11:58:21.802Z,50.50
2022-09-07T12:01:16.285Z,50.70
2022-09-07T12:04:00.616Z,49.80
2022-09-07T12:07:14.801Z,50.70
2022-09-07T12:09:44.550Z,50.60
2022-09-07T12:12:44.253Z,50.50
2022-09-07T12:15:22.313Z,50.60
2022-09-07T12:17:48.951Z,49.90
2022-09-07T12:20:17.167Z,49.60
2022-09-07T12:23:03.703Z,49.70
2022-09-07T12:25:33.426Z,48.20
2022-09-07T12:28:00.732Z,49.30
2022-09-07T12:30:28.117Z,49.90
2022-09-07T12:33:04.410Z,49.00
2022-09-07T12:35:37.437Z,49.80
2022-09-07T12:38:30.012Z,48.60
2022-09-07T12:41:02.017Z,47.10
2022-09-07T12:43:35.142Z,47.60
2022-09-07T12:46:02.870Z,47.80
2022-09-07T12:49:07.711Z,47.90
2022-09-07T12:54:36.239Z,48.70
2022-09-07T12:57:31.234Z,47.80
2022-09-07T13:00:25.744Z,48.20
2022-09-07T13:03:49.441Z,47.90
2022-09-07T13:09:26.367Z,47.60
2022-09-07T13:11:53.319Z,46.80
2022-09-07T13:14:24.381Z,47.00
2022-09-07T13:17:27.067Z,46.50
2022-09-07T13:19:53.866Z,46.70
2022-09-07T13:22:29.535Z,45.30
2022-09-07T13:24:59.566Z,46.70
2022-09-07T13:27:47.502Z,46.10
2022-09-07T13:30:22.039Z,45.70
2022-09-07T13:35:35.934Z,46.30
2022-09-07T13:38:04.000Z,45.90
2022-09-07T13:40:34.670Z,46.20
2022-09-07T13:43:04.334Z,45.80
2022-09-07T13:45:46.840Z,45.20
2022-09-07T13:48:13.505Z,45.70
2022-09-07T13:50:54.833Z,45.40
2022-09-07T13:53:33.933Z,45.70
2022-09-07T13:56:24.318Z,46.00
2022-09-07T13:58:52.581Z,46.20
2022-09-07T14:01:21.341Z,46.30
2022-09-07T14:04:00.054Z,46.40
2022-09-07T14:06:31.159Z,46.30
2022-09-07T14:09:06.034Z,46.20
2022-09-07T14:11:35.762Z,46.60
2022-09-07T14:14:25.550Z,46.40
2022-09-07T14:16:52.338Z,46.50
2022-09-07T14:19:43.389Z,46.70
2022-09-07T14:22:15.270Z,46.80
2022-09-07T14:24:51.037Z,46.80
2022-09-07T14:27:31.183Z,46.90
2022-09-07T14:30:26.171Z,47.00
2022-09-07T14:32:59.884Z,47.10
2022-09-07T14:35:32.054Z,47.20
2022-09-07T14:38:11.335Z,47.20
2022-09-07T14:40:38.139Z,47.30
2022-09-07T14:43:35.022Z,47.20
2022-09-07T14:46:26.836Z,47.40
2022-09-07T14:48:56.192Z,47.30
2022-09-07T14:51:43.769Z,47.30
2022-09-07T14:54:31.970Z,47.20
2022-09-07T14:57:20.498Z,47.30
2022-09-07T14:59:48.102Z,47.10
2022-09-07T15:02:17.944Z,47.30
2022-09-07T15:04:45.659Z,47.30
2022-09-07T15:07:37.906Z,47.50
2022-09-07T15:10:15.045Z,47.60
2022-09-07T15:12:44.035Z,47.70
2022-09-07T15:15:32.507Z,47.70
2022-09-07T15:18:07.765Z,47.60
2022-09-07T15:20:41.508Z,47.60
2022-09-07T15:23:16.869Z,47.60
2022-09-07T15:25:50.978Z,47.80
2022-09-07T15:34:13.770Z,47.70
2022-09-07T15:36:43.879Z,47.50
2022-09-07T15:39:25.284Z,47.50
2022-09-07T15:41:52.550Z,47.40
2022-09-07T15:44:24.372Z,47.30
2022-09-07T15:49:39.552Z,47.20
2022-09-07T15:52:08.853Z,47.10
2022-09-07T15:54:39.554Z,47.00
2022-09-07T15:59:53.616Z,47.00
2022-09-07T16:05:07.805Z,47.00
2022-09-07T16:10:21.485Z,46.80
2022-09-07T16:13:10.526Z,46.80
2022-09-07T16:15:35.626Z,46.70
2022-09-07T16:18:02.631Z,46.80
2022-09-07T16:20:32.038Z,46.90
2022-09-07T16:23:15.951Z,47.00
2022-09-07T16:26:07.719Z,47.00
2022-09-07T16:28:37.686Z,47.00
2022-09-07T16:31:11.619Z,47.00
2022-09-07T16:33:38.343Z,47.00
2022-09-07T16:36:09.154Z,47.10
2022-09-07T16:38:44.049Z,47.00
2022-09-07T16:41:23.247Z,47.00
2022-09-07T16:43:50.334Z,47.10
2022-09-07T16:46:20.069Z,47.20
2022-09-07T16:48:47.741Z,47.20
2022-09-07T16:51:17.608Z,47.20
2022-09-07T16:53:45.507Z,47.20
2022-09-07T16:56:14.954Z,47.30
2022-09-07T16:58:49.095Z,47.40
2022-09-07T17:01:18.529Z,47.40
2022-09-07T17:03:45.896Z,47.30
2022-09-07T17:06:14.017Z,47.40
2022-09-07T17:08:42.200Z,47.30
2022-09-07T17:11:14.521Z,47.20
2022-09-07T17:13:42.757Z,47.30
2022-09-07T17:16:14.734Z,47.30
2022-09-07T17:21:34.972Z,47.20
2022-09-07T17:24:04.369Z,47.30
2022-09-07T17:26:32.108Z,47.30
2022-09-07T17:29:00.980Z,47.50
2022-09-07T17:34:19.897Z,47.50
2022-09-07T17:36:47.259Z,47.50
2022-09-07T17:39:16.295Z,47.50
2022-09-07T17:41:44.750Z,47.60
2022-09-07T17:44:11.556Z,47.50
2022-09-07T17:46:38.439Z,47.70
2022-09-07T17:49:07.900Z,47.60
2022-09-07T17:51:36.024Z,47.70
2022-09-07T17:54:09.558Z,47.70
2022-09-07T17:56:37.371Z,47.80
2022-09-07T18:01:51.186Z,47.80
2022-09-07T18:04:17.972Z,47.80
2022-09-07T18:06:44.725Z,47.90
2022-09-07T18:09:13.935Z,47.90
2022-09-07T18:11:47.328Z,48.00
2022-09-07T18:14:15.495Z,47.90
2022-09-07T18:16:43.688Z,48.00
2022-09-07T18:19:11.981Z,47.90
2022-09-07T18:21:41.994Z,47.90
2022-09-07T18:24:23.761Z,48.00
2022-09-07T18:26:53.030Z,48.10
2022-09-07T18:29:30.057Z,48.10
2022-09-07T18:32:01.145Z,48.00
2022-09-07T18:34:31.816Z,48.00
2022-09-07T18:36:59.812Z,48.10
2022-09-07T18:39:27.506Z,48.00
2022-09-07T18:41:55.092Z,47.90
2022-09-07T18:47:08.779Z,48.10
2022-09-07T18:49:35.534Z,48.30
2022-09-07T18:54:50.528Z,48.40
2022-09-07T18:57:17.624Z,48.40
2022-09-07T18:59:45.102Z,48.50
2022-09-07T19:02:12.018Z,48.60
2022-09-07T19:07:29.661Z,48.60
2022-09-07T19:09:56.939Z,48.70
2022-09-07T19:12:24.379Z,49.30
2022-09-07T19:14:51.534Z,48.90
2022-09-07T19:17:18.282Z,48.90
2022-09-07T19:19:44.974Z,48.90
2022-09-07T19:22:11.860Z,48.90
2022-09-07T19:24:38.573Z,48.90
2022-09-07T19:27:07.211Z,49.00
2022-09-07T19:29:34.045Z,49.20
2022-09-07T19:32:07.674Z,49.10
2022-09-07T19:34:40.086Z,49.10
2022-09-07T19:37:08.739Z,49.10
2022-09-07T19:39:35.529Z,49.00
2022-09-07T19:42:04.474Z,49.10
2022-09-07T19:44:32.106Z,48.90
2022-09-07T19:47:00.063Z,49.10
2022-09-07T19:49:26.956Z,49.20
2022-09-07T19:51:53.668Z,49.30
2022-09-07T19:54:20.434Z,49.20
2022-09-07T19:56:47.120Z,49.40
2022-09-07T19:59:14.573Z,49.40
2022-09-07T20:01:46.075Z,49.40
2022-09-07T20:04:20.435Z,49.40
2022-09-07T20:06:50.170Z,49.50
2022-09-07T20:09:18.653Z,49.60
2022-09-07T20:11:47.447Z,49.60
2022-09-07T20:14:15.889Z,49.60
2022-09-07T20:16:43.216Z,49.60
2022-09-07T20:19:16.063Z,49.70
2022-09-07T20:21:42.925Z,49.70
2022-09-07T20:24:12.795Z,49.60
2022-09-07T20:26:39.605Z,49.80
2022-09-07T20:29:26.210Z,49.70
2022-09-07T20:31:53.987Z,49.80
2022-09-07T20:34:20.999Z,50.10
2022-09-07T20:36:51.401Z,49.80
2022-09-07T20:39:18.320Z,49.90
2022-09-07T20:41:45.366Z,50.00
2022-09-07T20:44:12.612Z,50.00
2022-09-07T20:46:39.364Z,50.10
2022-09-07T20:49:06.374Z,50.00
2022-09-07T20:51:33.090Z,50.00
2022-09-07T20:53:59.822Z,50.10
2022-09-07T20:56:28.410Z,50.10
2022-09-07T20:58:57.382Z,50.20
2022-09-07T21:01:24.169Z,50.30
2022-09-07T21:03:55.592Z,50.30
2022-09-07T21:06:24.048Z,50.60
2022-09-07T21:08:51.138Z,50.80
2022-09-07T21:11:26.615Z,50.80
2022-09-07T21:13:59.253Z,51.10
2022-09-07T21:16:26.834Z,50.80
2022-09-07T21:18:55.827Z,50.90
2022-09-07T21:21:24.138Z,51.00
2022-09-07T21:23:59.610Z,51.00
2022-09-07T21:26:31.356Z,51.20
2022-09-07T21:29:03.530Z,51.20
2022-09-07T21:31:31.988Z,51.50
2022-09-07T21:34:01.345Z,51.40
2022-09-07T21:36:28.795Z,51.60
2022-09-07T21:38:55.803Z,51.90
2022-09-07T21:41:24.302Z,52.30
2022-09-07T21:44:00.519Z,51.90
2022-09-07T21:46:29.022Z,52.50
2022-09-07T21:48:57.059Z,52.40
2022-09-07T21:51:24.598Z,52.80
2022-09-07T21:53:53.041Z,52.40
2022-09-07T21:56:20.522Z,52.80
2022-09-07T21:58:47.294Z,52.80
2022-09-07T22:01:19.505Z,52.80
2022-09-07T22:03:47.610Z,52.80
2022-09-07T22:06:15.135Z,52.80
2022-09-07T22:08:42.540Z,53.00
2022-09-07T22:11:10.585Z,52.90
2022-09-07T22:13:37.986Z,53.00
2022-09-07T22:16:05.702Z,53.00
2022-09-07T22:18:32.639Z,53.20
2022-09-07T22:21:09.137Z,53.20
2022-09-07T22:23:38.540Z,53.20
2022-09-07T22:26:06.663Z,53.40
2022-09-07T22:28:34.065Z,53.30
2022-09-07T22:31:22.167Z,53.40
2022-09-07T22:33:50.463Z,53.50
2022-09-07T22:36:41.670Z,53.40
2022-09-07T22:39:14.542Z,53.50
2022-09-07T22:41:42.276Z,53.40
2022-09-07T22:44:14.893Z,53.60
2022-09-07T22:46:43.697Z,53.60
2022-09-07T22:49:15.852Z,54.10
2022-09-07T22:51:43.170Z,53.60
2022-09-07T22:54:10.348Z,53.60
2022-09-07T22:56:38.324Z,53.80
2022-09-07T22:59:07.571Z,53.80
2022-09-07T23:01:34.970Z,53.70
2022-09-07T23:04:02.891Z,53.70
2022-09-07T23:06:31.208Z,53.30
2022-09-07T23:09:00.770Z,53.40
2022-09-07T23:11:29.504Z,53.40
2022-09-07T23:13:58.566Z,53.70
2022-09-07T23:16:27.293Z,53.90
2022-09-07T23:18:55.502Z,54.00
2022-09-07T23:21:22.213Z,53.70
2022-09-07T23:23:53.825Z,54.50
2022-09-07T23:26:22.178Z,54.00
2022-09-07T23:28:53.032Z,54.10
2022-09-07T23:31:20.707Z,53.90
2022-09-07T23:33:47.725Z,54.40
2022-09-07T23:36:14.817Z,54.40
2022-09-07T23:38:41.501Z,54.30
2022-09-07T23:41:08.268Z,54.40
2022-09-07T23:43:35.598Z,54.40
2022-09-07T23:46:02.594Z,54.60
2022-09-07T23:48:29.340Z,54.50
2022-09-07T23:50:56.134Z,54.60
2022-09-07T23:53:23.392Z,54.80
2022-09-07T23:55:51.540Z,54.90
2022-09-07T23:58:19.586Z,55.00
